sensor_id;sensor_type;location;lat;lon;timestamp;temperature;humidity
4435;DHT22;46552;52.150;8.428;2024-02-26T00:01:07;4.10;99.90
4435;DHT22;46552;52.150;8.428;2024-02-26T00:03:35;4.10;99.90
4435;DHT22;46552;52.150;8.428;2024-02-26T00:06:02;4.10;99.90
4435;DHT22;46552;52.150;8.428;2024-02-26T00:08:29;4.10;99.90
4435;DHT22;46552;52.150;8.428;2024-02-26T00:10:56;4.10;99.90
4435;DHT22;46552;52.150;8.428;2024-02-26T00:13:23;4.10;99.90
4435;DHT22;46552;52.150;8.428;2024-02-26T00:15:50;4.10;99.90
4435;DHT22;46552;52.150;8.428;2024-02-26T00:18:20;4.10;99.90
4435;DHT22;46552;52.150;8.428;2024-02-26T00:20:48;4.10;99.90
4435;DHT22;46552;52.150;8.428;2024-02-26T00:23:15;4.10;99.90
4435;DHT22;46552;52.150;8.428;2024-02-26T00:25:42;4.10;99.90
4435;DHT22;46552;52.150;8.428;2024-02-26T00:28:10;4.10;99.90
4435;DHT22;46552;52.150;8.428;2024-02-26T00:30:39;4.00;99.90
4435;DHT22;46552;52.150;8.428;2024-02-26T00:33:06;4.00;99.90
4435;DHT22;46552;52.150;8.428;2024-02-26T00:35:35;4.00;99.90
4435;DHT22;46552;52.150;8.428;2024-02-26T00:38:02;4.00;99.90
4435;DHT22;46552;52.150;8.428;2024-02-26T00:40:29;4.10;99.90
4435;DHT22;46552;52.150;8.428;2024-02-26T00:42:57;4.10;99.90
4435;DHT22;46552;52.150;8.428;2024-02-26T00:45:24;4.10;99.90
4435;DHT22;46552;52.150;8.428;2024-02-26T00:47:51;4.10;99.90
4435;DHT22;46552;52.150;8.428;2024-02-26T00:50:18;4.10;99.90
4435;DHT22;46552;52.150;8.428;2024-02-26T00:52:47;4.10;99.90
4435;DHT22;46552;52.150;8.428;2024-02-26T00:55:14;4.10;99.90
4435;DHT22;46552;52.150;8.428;2024-02-26T00:57:42;4.10;99.90
4435;DHT22;46552;52.150;8.428;2024-02-26T01:00:09;4.20;99.90
4435;DHT22;46552;52.150;8.428;2024-02-26T01:02:37;4.10;99.90
4435;DHT22;46552;52.150;8.428;2024-02-26T01:05:05;4.10;99.90
4435;DHT22;46552;52.150;8.428;2024-02-26T01:07:32;4.10;99.90
4435;DHT22;46552;52.150;8.428;2024-02-26T01:10:03;4.10;99.90
4435;DHT22;46552;52.150;8.428;2024-02-26T01:12:31;4.10;99.90
4435;DHT22;46552;52.150;8.428;2024-02-26T01:14:58;4.10;99.90
4435;DHT22;46552;52.150;8.428;2024-02-26T01:17:26;4.00;99.90
4435;DHT22;46552;52.150;8.428;2024-02-26T01:19:53;4.10;99.90
4435;DHT22;46552;52.150;8.428;2024-02-26T01:22:20;4.00;99.90
4435;DHT22;46552;52.150;8.428;2024-02-26T01:24:48;4.00;99.90
4435;DHT22;46552;52.150;8.428;2024-02-26T01:27:17;4.00;99.90
4435;DHT22;46552;52.150;8.428;2024-02-26T01:29:45;4.00;99.90
4435;DHT22;46552;52.150;8.428;2024-02-26T01:32:12;4.00;99.90
4435;DHT22;46552;52.150;8.428;2024-02-26T01:34:39;4.00;99.90
4435;DHT22;46552;52.150;8.428;2024-02-26T01:37:07;4.00;99.90
4435;DHT22;46552;52.150;8.428;2024-02-26T01:39:34;3.90;99.90
4435;DHT22;46552;52.150;8.428;2024-02-26T01:42:01;3.90;99.90
4435;DHT22;46552;52.150;8.428;2024-02-26T01:44:30;3.90;99.90
4435;DHT22;46552;52.150;8.428;2024-02-26T01:46:58;3.90;99.90
4435;DHT22;46552;52.150;8.428;2024-02-26T01:49:27;3.90;99.90
4435;DHT22;46552;52.150;8.428;2024-02-26T01:51:55;3.90;99.90
4435;DHT22;46552;52.150;8.428;2024-02-26T01:54:22;3.90;99.90
4435;DHT22;46552;52.150;8.428;2024-02-26T01:56:50;3.80;99.90
4435;DHT22;46552;52.150;8.428;2024-02-26T01:59:17;3.80;99.90
4435;DHT22;46552;52.150;8.428;2024-02-26T02:01:51;3.80;99.90
4435;DHT22;46552;52.150;8.428;2024-02-26T02:04:20;3.90;99.90
4435;DHT22;46552;52.150;8.428;2024-02-26T02:06:48;3.90;99.90
4435;DHT22;46552;52.150;8.428;2024-02-26T02:09:15;3.90;99.90
4435;DHT22;46552;52.150;8.428;2024-02-26T02:11:43;3.90;99.90
4435;DHT22;46552;52.150;8.428;2024-02-26T02:14:10;3.90;99.90
4435;DHT22;46552;52.150;8.428;2024-02-26T02:16:37;4.00;99.90
4435;DHT22;46552;52.150;8.428;2024-02-26T02:19:06;4.00;99.90
4435;DHT22;46552;52.150;8.428;2024-02-26T02:21:34;4.00;99.90
4435;DHT22;46552;52.150;8.428;2024-02-26T02:24:02;4.00;99.90
4435;DHT22;46552;52.150;8.428;2024-02-26T02:26:29;4.00;99.90
4435;DHT22;46552;52.150;8.428;2024-02-26T02:28:58;4.10;99.90
4435;DHT22;46552;52.150;8.428;2024-02-26T02:31:26;4.10;99.90
4435;DHT22;46552;52.150;8.428;2024-02-26T02:33:55;4.10;99.90
4435;DHT22;46552;52.150;8.428;2024-02-26T02:36:22;4.20;99.90
4435;DHT22;46552;52.150;8.428;2024-02-26T02:38:51;4.20;99.90
4435;DHT22;46552;52.150;8.428;2024-02-26T02:41:18;4.20;99.90
4435;DHT22;46552;52.150;8.428;2024-02-26T02:43:45;4.20;99.90
4435;DHT22;46552;52.150;8.428;2024-02-26T02:46:12;4.20;99.90
4435;DHT22;46552;52.150;8.428;2024-02-26T02:48:42;4.20;99.90
4435;DHT22;46552;52.150;8.428;2024-02-26T02:51:10;4.20;99.90
4435;DHT22;46552;52.150;8.428;2024-02-26T02:53:37;4.30;99.90
4435;DHT22;46552;52.150;8.428;2024-02-26T02:56:06;4.30;99.90
4435;DHT22;46552;52.150;8.428;2024-02-26T02:58:34;4.30;99.90
4435;DHT22;46552;52.150;8.428;2024-02-26T03:01:01;4.30;99.90
4435;DHT22;46552;52.150;8.428;2024-02-26T03:03:28;4.30;99.90
4435;DHT22;46552;52.150;8.428;2024-02-26T03:05:55;4.30;99.90
4435;DHT22;46552;52.150;8.428;2024-02-26T03:08:23;4.40;99.90
4435;DHT22;46552;52.150;8.428;2024-02-26T03:10:51;4.40;99.90
4435;DHT22;46552;52.150;8.428;2024-02-26T03:13:20;4.40;99.90
4435;DHT22;46552;52.150;8.428;2024-02-26T03:15:47;4.50;99.90
4435;DHT22;46552;52.150;8.428;2024-02-26T03:18:15;4.50;99.90
4435;DHT22;46552;52.150;8.428;2024-02-26T03:20:42;4.60;99.90
4435;DHT22;46552;52.150;8.428;2024-02-26T03:23:10;4.60;99.90
4435;DHT22;46552;52.150;8.428;2024-02-26T03:25:44;4.70;99.90
4435;DHT22;46552;52.150;8.428;2024-02-26T03:28:12;4.70;99.90
4435;DHT22;46552;52.150;8.428;2024-02-26T03:30:40;4.70;99.90
4435;DHT22;46552;52.150;8.428;2024-02-26T03:33:07;4.80;99.90
4435;DHT22;46552;52.150;8.428;2024-02-26T03:35:35;4.80;99.90
4435;DHT22;46552;52.150;8.428;2024-02-26T03:38:02;4.80;99.90
4435;DHT22;46552;52.150;8.428;2024-02-26T03:40:29;4.80;99.90
4435;DHT22;46552;52.150;8.428;2024-02-26T03:42:57;4.80;99.90
4435;DHT22;46552;52.150;8.428;2024-02-26T03:45:25;4.90;99.90
4435;DHT22;46552;52.150;8.428;2024-02-26T03:47:55;4.90;99.90
4435;DHT22;46552;52.150;8.428;2024-02-26T03:50:22;4.90;99.90
4435;DHT22;46552;52.150;8.428;2024-02-26T03:52:49;4.90;99.90
4435;DHT22;46552;52.150;8.428;2024-02-26T03:55:16;4.90;99.90
4435;DHT22;46552;52.150;8.428;2024-02-26T03:57:47;5.00;99.90
4435;DHT22;46552;52.150;8.428;2024-02-26T04:00:15;5.00;99.90
4435;DHT22;46552;52.150;8.428;2024-02-26T04:02:42;5.00;99.90
4435;DHT22;46552;52.150;8.428;2024-02-26T04:05:12;5.00;99.90
4435;DHT22;46552;52.150;8.428;2024-02-26T04:07:40;5.00;99.90
4435;DHT22;46552;52.150;8.428;2024-02-26T04:10:09;5.00;99.90
4435;DHT22;46552;52.150;8.428;2024-02-26T04:12:38;5.00;99.90
4435;DHT22;46552;52.150;8.428;2024-02-26T04:15:07;5.00;99.90
4435;DHT22;46552;52.150;8.428;2024-02-26T04:17:34;5.00;99.90
4435;DHT22;46552;52.150;8.428;2024-02-26T04:20:02;5.10;99.90
4435;DHT22;46552;52.150;8.428;2024-02-26T04:22:32;5.10;99.90
4435;DHT22;46552;52.150;8.428;2024-02-26T04:24:59;5.10;99.90
4435;DHT22;46552;52.150;8.428;2024-02-26T04:27:26;5.10;99.90
4435;DHT22;46552;52.150;8.428;2024-02-26T04:29:54;5.10;99.90
4435;DHT22;46552;52.150;8.428;2024-02-26T04:32:21;5.10;99.90
4435;DHT22;46552;52.150;8.428;2024-02-26T04:34:48;5.10;99.90
4435;DHT22;46552;52.150;8.428;2024-02-26T04:37:15;5.10;99.90
4435;DHT22;46552;52.150;8.428;2024-02-26T04:39:44;5.10;99.90
4435;DHT22;46552;52.150;8.428;2024-02-26T04:42:11;5.10;99.90
4435;DHT22;46552;52.150;8.428;2024-02-26T04:44:40;5.10;99.90
4435;DHT22;46552;52.150;8.428;2024-02-26T04:47:07;5.20;99.90
4435;DHT22;46552;52.150;8.428;2024-02-26T04:49:34;5.20;99.90
4435;DHT22;46552;52.150;8.428;2024-02-26T04:52:01;5.20;99.90
4435;DHT22;46552;52.150;8.428;2024-02-26T04:54:29;5.30;99.90
4435;DHT22;46552;52.150;8.428;2024-02-26T04:56:57;5.30;99.90
4435;DHT22;46552;52.150;8.428;2024-02-26T04:59:24;5.30;99.90
4435;DHT22;46552;52.150;8.428;2024-02-26T05:01:52;5.30;99.90
4435;DHT22;46552;52.150;8.428;2024-02-26T05:04:19;5.30;99.90
4435;DHT22;46552;52.150;8.428;2024-02-26T05:06:46;5.30;99.90
4435;DHT22;46552;52.150;8.428;2024-02-26T05:09:13;5.30;99.90
4435;DHT22;46552;52.150;8.428;2024-02-26T05:11:41;5.20;99.90
4435;DHT22;46552;52.150;8.428;2024-02-26T05:14:10;5.20;99.90
4435;DHT22;46552;52.150;8.428;2024-02-26T05:16:37;5.20;99.90
4435;DHT22;46552;52.150;8.428;2024-02-26T05:19:04;5.30;99.90
4435;DHT22;46552;52.150;8.428;2024-02-26T05:21:31;5.30;99.90
4435;DHT22;46552;52.150;8.428;2024-02-26T05:24:00;5.30;99.90
4435;DHT22;46552;52.150;8.428;2024-02-26T05:26:27;5.30;99.90
4435;DHT22;46552;52.150;8.428;2024-02-26T05:28:54;5.40;99.90
4435;DHT22;46552;52.150;8.428;2024-02-26T05:31:28;5.40;99.90
4435;DHT22;46552;52.150;8.428;2024-02-26T05:33:55;5.40;99.90
4435;DHT22;46552;52.150;8.428;2024-02-26T05:36:23;5.40;99.90
4435;DHT22;46552;52.150;8.428;2024-02-26T05:38:51;5.40;99.90
4435;DHT22;46552;52.150;8.428;2024-02-26T05:41:19;5.50;99.90
4435;DHT22;46552;52.150;8.428;2024-02-26T05:43:49;5.50;99.90
4435;DHT22;46552;52.150;8.428;2024-02-26T05:46:16;5.50;99.90
4435;DHT22;46552;52.150;8.428;2024-02-26T05:48:47;5.50;99.90
4435;DHT22;46552;52.150;8.428;2024-02-26T05:51:15;5.50;99.90
4435;DHT22;46552;52.150;8.428;2024-02-26T05:53:42;5.60;99.90
4435;DHT22;46552;52.150;8.428;2024-02-26T05:56:09;5.60;99.90
4435;DHT22;46552;52.150;8.428;2024-02-26T05:58:37;5.60;99.90
4435;DHT22;46552;52.150;8.428;2024-02-26T06:01:04;5.60;99.90
4435;DHT22;46552;52.150;8.428;2024-02-26T06:03:31;5.60;99.90
4435;DHT22;46552;52.150;8.428;2024-02-26T06:06:00;5.70;99.90
4435;DHT22;46552;52.150;8.428;2024-02-26T06:08:27;5.70;99.90
4435;DHT22;46552;52.150;8.428;2024-02-26T06:10:55;5.70;99.90
4435;DHT22;46552;52.150;8.428;2024-02-26T06:13:22;5.70;99.90
4435;DHT22;46552;52.150;8.428;2024-02-26T06:15:50;5.70;99.90
4435;DHT22;46552;52.150;8.428;2024-02-26T06:18:18;5.70;99.90
4435;DHT22;46552;52.150;8.428;2024-02-26T06:20:45;5.70;99.90
4435;DHT22;46552;52.150;8.428;2024-02-26T06:23:14;5.70;99.90
4435;DHT22;46552;52.150;8.428;2024-02-26T06:25:42;5.70;99.90
4435;DHT22;46552;52.150;8.428;2024-02-26T06:28:09;5.70;99.90
4435;DHT22;46552;52.150;8.428;2024-02-26T06:30:37;5.70;99.90
4435;DHT22;46552;52.150;8.428;2024-02-26T06:33:04;5.70;99.90
4435;DHT22;46552;52.150;8.428;2024-02-26T06:35:32;5.70;99.90
4435;DHT22;46552;52.150;8.428;2024-02-26T06:38:00;5.70;99.90
4435;DHT22;46552;52.150;8.428;2024-02-26T06:40:28;5.70;99.90
4435;DHT22;46552;52.150;8.428;2024-02-26T06:42:55;5.70;99.90
4435;DHT22;46552;52.150;8.428;2024-02-26T06:45:22;5.70;99.90
4435;DHT22;46552;52.150;8.428;2024-02-26T06:47:50;5.70;99.90
4435;DHT22;46552;52.150;8.428;2024-02-26T06:50:17;5.70;99.90
4435;DHT22;46552;52.150;8.428;2024-02-26T06:52:44;5.70;99.90
4435;DHT22;46552;52.150;8.428;2024-02-26T06:55:13;5.70;99.90
4435;DHT22;46552;52.150;8.428;2024-02-26T06:57:41;5.70;99.90
4435;DHT22;46552;52.150;8.428;2024-02-26T07:00:11;5.70;99.90
4435;DHT22;46552;52.150;8.428;2024-02-26T07:02:42;5.80;99.90
4435;DHT22;46552;52.150;8.428;2024-02-26T07:05:09;5.80;99.90
4435;DHT22;46552;52.150;8.428;2024-02-26T07:07:38;5.80;99.90
4435;DHT22;46552;52.150;8.428;2024-02-26T07:10:07;5.80;99.90
4435;DHT22;46552;52.150;8.428;2024-02-26T07:12:34;5.80;99.90
4435;DHT22;46552;52.150;8.428;2024-02-26T07:15:03;5.80;99.90
4435;DHT22;46552;52.150;8.428;2024-02-26T07:17:30;5.80;99.90
4435;DHT22;46552;52.150;8.428;2024-02-26T07:19:59;5.80;99.90
4435;DHT22;46552;52.150;8.428;2024-02-26T07:22:30;5.90;99.90
4435;DHT22;46552;52.150;8.428;2024-02-26T07:24:57;5.90;99.90
4435;DHT22;46552;52.150;8.428;2024-02-26T07:27:24;5.90;99.90
4435;DHT22;46552;52.150;8.428;2024-02-26T07:29:52;5.90;99.90
4435;DHT22;46552;52.150;8.428;2024-02-26T07:32:21;5.90;99.90
4435;DHT22;46552;52.150;8.428;2024-02-26T07:34:48;5.90;99.90
4435;DHT22;46552;52.150;8.428;2024-02-26T07:37:16;6.00;99.90
4435;DHT22;46552;52.150;8.428;2024-02-26T07:39:43;5.90;99.90
4435;DHT22;46552;52.150;8.428;2024-02-26T07:42:10;6.00;99.90
4435;DHT22;46552;52.150;8.428;2024-02-26T07:44:37;6.00;99.90
4435;DHT22;46552;52.150;8.428;2024-02-26T07:47:08;6.00;99.90
4435;DHT22;46552;52.150;8.428;2024-02-26T07:49:37;6.00;99.90
4435;DHT22;46552;52.150;8.428;2024-02-26T07:52:05;6.10;99.90
4435;DHT22;46552;52.150;8.428;2024-02-26T07:54:32;6.10;99.90
4435;DHT22;46552;52.150;8.428;2024-02-26T07:57:01;6.10;99.90
4435;DHT22;46552;52.150;8.428;2024-02-26T07:59:31;6.10;99.90
4435;DHT22;46552;52.150;8.428;2024-02-26T08:01:58;6.10;99.90
4435;DHT22;46552;52.150;8.428;2024-02-26T08:04:26;6.20;99.90
4435;DHT22;46552;52.150;8.428;2024-02-26T08:06:55;6.20;99.90
4435;DHT22;46552;52.150;8.428;2024-02-26T08:09:22;6.20;99.90
4435;DHT22;46552;52.150;8.428;2024-02-26T08:11:50;6.20;99.90
4435;DHT22;46552;52.150;8.428;2024-02-26T08:14:17;6.20;99.90
4435;DHT22;46552;52.150;8.428;2024-02-26T08:16:47;6.20;99.90
4435;DHT22;46552;52.150;8.428;2024-02-26T08:19:14;6.20;99.90
4435;DHT22;46552;52.150;8.428;2024-02-26T08:21:43;6.20;99.90
4435;DHT22;46552;52.150;8.428;2024-02-26T08:24:13;6.20;99.90
4435;DHT22;46552;52.150;8.428;2024-02-26T08:26:40;6.30;99.90
4435;DHT22;46552;52.150;8.428;2024-02-26T08:29:07;6.30;99.90
4435;DHT22;46552;52.150;8.428;2024-02-26T08:31:36;6.30;99.90
4435;DHT22;46552;52.150;8.428;2024-02-26T08:34:04;6.30;99.90
4435;DHT22;46552;52.150;8.428;2024-02-26T08:36:33;6.30;99.90
4435;DHT22;46552;52.150;8.428;2024-02-26T08:39:01;6.40;99.90
4435;DHT22;46552;52.150;8.428;2024-02-26T08:41:30;6.40;99.90
4435;DHT22;46552;52.150;8.428;2024-02-26T08:43:57;6.40;99.90
4435;DHT22;46552;52.150;8.428;2024-02-26T08:46:25;6.40;99.90
4435;DHT22;46552;52.150;8.428;2024-02-26T08:48:52;6.40;99.90
4435;DHT22;46552;52.150;8.428;2024-02-26T08:51:21;6.40;99.90
4435;DHT22;46552;52.150;8.428;2024-02-26T08:53:48;6.50;99.90
4435;DHT22;46552;52.150;8.428;2024-02-26T08:56:16;6.50;99.90
4435;DHT22;46552;52.150;8.428;2024-02-26T08:58:44;6.50;99.90
4435;DHT22;46552;52.150;8.428;2024-02-26T09:01:14;6.50;99.90
4435;DHT22;46552;52.150;8.428;2024-02-26T09:03:41;6.50;99.90
4435;DHT22;46552;52.150;8.428;2024-02-26T09:06:10;6.60;99.90
4435;DHT22;46552;52.150;8.428;2024-02-26T09:08:37;6.60;99.90
4435;DHT22;46552;52.150;8.428;2024-02-26T09:11:04;6.60;99.90
4435;DHT22;46552;52.150;8.428;2024-02-26T09:13:33;6.70;99.90
4435;DHT22;46552;52.150;8.428;2024-02-26T09:16:01;6.70;99.90
4435;DHT22;46552;52.150;8.428;2024-02-26T09:18:29;6.70;99.90
4435;DHT22;46552;52.150;8.428;2024-02-26T09:20:56;6.80;99.90
4435;DHT22;46552;52.150;8.428;2024-02-26T09:23:23;6.80;99.90
4435;DHT22;46552;52.150;8.428;2024-02-26T09:25:51;6.80;99.90
4435;DHT22;46552;52.150;8.428;2024-02-26T09:28:18;6.90;99.90
4435;DHT22;46552;52.150;8.428;2024-02-26T09:30:45;6.90;99.90
4435;DHT22;46552;52.150;8.428;2024-02-26T09:33:15;6.90;99.90
4435;DHT22;46552;52.150;8.428;2024-02-26T09:35:42;7.00;99.90
4435;DHT22;46552;52.150;8.428;2024-02-26T09:38:09;7.00;99.90
4435;DHT22;46552;52.150;8.428;2024-02-26T09:40:36;7.10;99.90
4435;DHT22;46552;52.150;8.428;2024-02-26T09:43:07;7.10;99.90
4435;DHT22;46552;52.150;8.428;2024-02-26T09:45:37;7.10;99.90
4435;DHT22;46552;52.150;8.428;2024-02-26T09:48:05;7.20;99.90
4435;DHT22;46552;52.150;8.428;2024-02-26T09:50:37;7.20;99.90
4435;DHT22;46552;52.150;8.428;2024-02-26T09:53:05;7.20;99.90
4435;DHT22;46552;52.150;8.428;2024-02-26T09:55:35;7.20;99.90
4435;DHT22;46552;52.150;8.428;2024-02-26T09:58:05;7.30;99.90
4435;DHT22;46552;52.150;8.428;2024-02-26T10:00:37;7.30;99.90
4435;DHT22;46552;52.150;8.428;2024-02-26T10:03:05;7.40;99.90
4435;DHT22;46552;52.150;8.428;2024-02-26T10:05:34;7.40;99.90
4435;DHT22;46552;52.150;8.428;2024-02-26T10:08:05;7.40;99.90
4435;DHT22;46552;52.150;8.428;2024-02-26T10:10:33;7.50;99.90
4435;DHT22;46552;52.150;8.428;2024-02-26T10:13:00;7.50;99.90
4435;DHT22;46552;52.150;8.428;2024-02-26T10:15:28;7.60;99.90
4435;DHT22;46552;52.150;8.428;2024-02-26T10:17:55;7.60;99.90
4435;DHT22;46552;52.150;8.428;2024-02-26T10:20:24;7.70;99.90
4435;DHT22;46552;52.150;8.428;2024-02-26T10:22:52;7.70;99.90
4435;DHT22;46552;52.150;8.428;2024-02-26T10:25:20;7.80;99.90
4435;DHT22;46552;52.150;8.428;2024-02-26T10:27:49;7.80;99.90
4435;DHT22;46552;52.150;8.428;2024-02-26T10:30:18;7.80;99.90
4435;DHT22;46552;52.150;8.428;2024-02-26T10:32:47;7.90;99.90
4435;DHT22;46552;52.150;8.428;2024-02-26T10:35:15;7.90;99.90
4435;DHT22;46552;52.150;8.428;2024-02-26T10:37:43;7.90;99.90
4435;DHT22;46552;52.150;8.428;2024-02-26T10:40:11;7.90;99.90
4435;DHT22;46552;52.150;8.428;2024-02-26T10:42:41;8.00;99.90
4435;DHT22;46552;52.150;8.428;2024-02-26T10:45:09;8.00;99.90
4435;DHT22;46552;52.150;8.428;2024-02-26T10:47:37;8.10;99.90
4435;DHT22;46552;52.150;8.428;2024-02-26T10:50:06;8.20;99.90
4435;DHT22;46552;52.150;8.428;2024-02-26T10:52:35;8.20;99.90
4435;DHT22;46552;52.150;8.428;2024-02-26T10:55:03;8.30;99.90
4435;DHT22;46552;52.150;8.428;2024-02-26T10:57:35;8.40;99.90
4435;DHT22;46552;52.150;8.428;2024-02-26T11:00:06;8.50;99.90
4435;DHT22;46552;52.150;8.428;2024-02-26T11:02:36;8.50;99.90
4435;DHT22;46552;52.150;8.428;2024-02-26T11:05:04;8.60;99.90
4435;DHT22;46552;52.150;8.428;2024-02-26T11:07:33;8.70;99.90
4435;DHT22;46552;52.150;8.428;2024-02-26T11:10:03;8.70;99.90
4435;DHT22;46552;52.150;8.428;2024-02-26T11:12:32;8.70;99.90
4435;DHT22;46552;52.150;8.428;2024-02-26T11:15:01;8.70;99.90
4435;DHT22;46552;52.150;8.428;2024-02-26T11:17:30;8.70;99.90
4435;DHT22;46552;52.150;8.428;2024-02-26T11:19:59;8.70;99.90
4435;DHT22;46552;52.150;8.428;2024-02-26T11:22:28;8.70;99.90
4435;DHT22;46552;52.150;8.428;2024-02-26T11:24:56;8.70;99.90
4435;DHT22;46552;52.150;8.428;2024-02-26T11:27:29;8.70;99.90
4435;DHT22;46552;52.150;8.428;2024-02-26T11:29:59;8.60;99.90
4435;DHT22;46552;52.150;8.428;2024-02-26T11:32:27;8.60;99.90
4435;DHT22;46552;52.150;8.428;2024-02-26T11:34:58;8.60;99.90
4435;DHT22;46552;52.150;8.428;2024-02-26T11:37:26;8.60;99.90
4435;DHT22;46552;52.150;8.428;2024-02-26T11:39:53;8.60;99.90
4435;DHT22;46552;52.150;8.428;2024-02-26T11:42:24;8.60;99.90
4435;DHT22;46552;52.150;8.428;2024-02-26T11:44:51;8.60;99.90
4435;DHT22;46552;52.150;8.428;2024-02-26T11:47:20;8.70;99.90
4435;DHT22;46552;52.150;8.428;2024-02-26T11:49:48;8.70;99.90
4435;DHT22;46552;52.150;8.428;2024-02-26T11:52:16;8.70;99.90
4435;DHT22;46552;52.150;8.428;2024-02-26T11:54:44;8.70;99.90
4435;DHT22;46552;52.150;8.428;2024-02-26T11:57:24;8.70;99.90
4435;DHT22;46552;52.150;8.428;2024-02-26T11:59:51;8.80;99.90
4435;DHT22;46552;52.150;8.428;2024-02-26T12:02:43;8.80;99.90
4435;DHT22;46552;52.150;8.428;2024-02-26T12:05:12;8.80;99.90
4435;DHT22;46552;52.150;8.428;2024-02-26T12:07:43;8.80;99.90
4435;DHT22;46552;52.150;8.428;2024-02-26T12:10:25;8.80;99.90
4435;DHT22;46552;52.150;8.428;2024-02-26T12:12:55;8.80;99.90
4435;DHT22;46552;52.150;8.428;2024-02-26T12:15:30;8.80;99.90
4435;DHT22;46552;52.150;8.428;2024-02-26T12:18:01;8.80;99.90
4435;DHT22;46552;52.150;8.428;2024-02-26T12:20:28;8.80;99.90
4435;DHT22;46552;52.150;8.428;2024-02-26T12:22:57;8.80;99.90
4435;DHT22;46552;52.150;8.428;2024-02-26T12:25:25;8.80;99.90
4435;DHT22;46552;52.150;8.428;2024-02-26T12:27:53;8.80;99.90
4435;DHT22;46552;52.150;8.428;2024-02-26T12:30:21;8.80;99.90
4435;DHT22;46552;52.150;8.428;2024-02-26T12:32:49;8.90;99.90
4435;DHT22;46552;52.150;8.428;2024-02-26T12:35:17;8.90;99.90
4435;DHT22;46552;52.150;8.428;2024-02-26T12:37:44;8.90;99.90
4435;DHT22;46552;52.150;8.428;2024-02-26T12:40:13;8.90;99.90
4435;DHT22;46552;52.150;8.428;2024-02-26T12:42:40;8.90;99.90
4435;DHT22;46552;52.150;8.428;2024-02-26T12:45:09;9.00;99.90
4435;DHT22;46552;52.150;8.428;2024-02-26T12:47:38;8.90;99.90
4435;DHT22;46552;52.150;8.428;2024-02-26T12:50:08;8.90;99.90
4435;DHT22;46552;52.150;8.428;2024-02-26T12:52:36;8.90;99.90
4435;DHT22;46552;52.150;8.428;2024-02-26T12:55:07;8.90;99.90
4435;DHT22;46552;52.150;8.428;2024-02-26T12:57:37;8.90;99.90
4435;DHT22;46552;52.150;8.428;2024-02-26T13:00:07;8.90;99.90
4435;DHT22;46552;52.150;8.428;2024-02-26T13:02:35;8.90;99.90
4435;DHT22;46552;52.150;8.428;2024-02-26T13:05:04;8.90;99.90
4435;DHT22;46552;52.150;8.428;2024-02-26T13:07:34;8.90;99.90
4435;DHT22;46552;52.150;8.428;2024-02-26T13:10:01;8.90;99.90
4435;DHT22;46552;52.150;8.428;2024-02-26T13:12:29;8.90;99.90
4435;DHT22;46552;52.150;8.428;2024-02-26T13:15:01;8.90;99.90
4435;DHT22;46552;52.150;8.428;2024-02-26T13:17:31;8.80;99.90
4435;DHT22;46552;52.150;8.428;2024-02-26T13:19:58;8.80;99.90
4435;DHT22;46552;52.150;8.428;2024-02-26T13:22:26;8.80;99.90
4435;DHT22;46552;52.150;8.428;2024-02-26T13:24:56;8.80;99.90
4435;DHT22;46552;52.150;8.428;2024-02-26T13:27:24;8.80;99.90
4435;DHT22;46552;52.150;8.428;2024-02-26T13:30:05;8.80;99.90
4435;DHT22;46552;52.150;8.428;2024-02-26T13:32:33;8.80;99.90
4435;DHT22;46552;52.150;8.428;2024-02-26T13:35:08;8.80;99.90
4435;DHT22;46552;52.150;8.428;2024-02-26T13:37:36;8.80;99.90
4435;DHT22;46552;52.150;8.428;2024-02-26T13:40:05;8.70;99.90
4435;DHT22;46552;52.150;8.428;2024-02-26T13:42:34;8.70;99.90
4435;DHT22;46552;52.150;8.428;2024-02-26T13:45:03;8.70;99.90
4435;DHT22;46552;52.150;8.428;2024-02-26T13:47:32;8.70;99.90
4435;DHT22;46552;52.150;8.428;2024-02-26T13:49:59;8.70;99.90
4435;DHT22;46552;52.150;8.428;2024-02-26T13:52:27;8.70;99.90
4435;DHT22;46552;52.150;8.428;2024-02-26T13:54:54;8.70;99.90
4435;DHT22;46552;52.150;8.428;2024-02-26T13:57:22;8.70;99.90
4435;DHT22;46552;52.150;8.428;2024-02-26T13:59:50;8.70;99.90
4435;DHT22;46552;52.150;8.428;2024-02-26T14:02:19;8.70;99.90
4435;DHT22;46552;52.150;8.428;2024-02-26T14:04:47;8.70;99.90
4435;DHT22;46552;52.150;8.428;2024-02-26T14:07:14;8.70;99.90
4435;DHT22;46552;52.150;8.428;2024-02-26T14:09:42;8.70;99.90
4435;DHT22;46552;52.150;8.428;2024-02-26T14:12:11;8.70;99.90
4435;DHT22;46552;52.150;8.428;2024-02-26T14:14:38;8.70;99.90
4435;DHT22;46552;52.150;8.428;2024-02-26T14:17:08;8.70;99.90
4435;DHT22;46552;52.150;8.428;2024-02-26T14:19:37;8.70;99.90
4435;DHT22;46552;52.150;8.428;2024-02-26T14:22:05;8.70;99.90
4435;DHT22;46552;52.150;8.428;2024-02-26T14:24:32;8.70;99.90
4435;DHT22;46552;52.150;8.428;2024-02-26T14:27:02;8.70;99.90
4435;DHT22;46552;52.150;8.428;2024-02-26T14:29:29;8.70;99.90
4435;DHT22;46552;52.150;8.428;2024-02-26T14:31:57;8.70;99.90
4435;DHT22;46552;52.150;8.428;2024-02-26T14:34:24;8.70;99.90
4435;DHT22;46552;52.150;8.428;2024-02-26T14:36:53;8.70;99.90
4435;DHT22;46552;52.150;8.428;2024-02-26T14:39:20;8.70;99.90
4435;DHT22;46552;52.150;8.428;2024-02-26T14:41:47;8.70;99.90
4435;DHT22;46552;52.150;8.428;2024-02-26T14:44:14;8.70;99.90
4435;DHT22;46552;52.150;8.428;2024-02-26T14:46:41;8.80;99.90
4435;DHT22;46552;52.150;8.428;2024-02-26T14:49:09;8.80;99.90
4435;DHT22;46552;52.150;8.428;2024-02-26T14:51:37;8.80;99.90
4435;DHT22;46552;52.150;8.428;2024-02-26T14:54:05;8.80;99.90
4435;DHT22;46552;52.150;8.428;2024-02-26T14:56:34;8.80;99.90
4435;DHT22;46552;52.150;8.428;2024-02-26T14:59:02;8.80;99.90
4435;DHT22;46552;52.150;8.428;2024-02-26T15:01:29;8.80;99.90
4435;DHT22;46552;52.150;8.428;2024-02-26T15:03:56;8.80;99.90
4435;DHT22;46552;52.150;8.428;2024-02-26T15:06:25;8.80;99.90
4435;DHT22;46552;52.150;8.428;2024-02-26T15:08:52;8.80;99.90
4435;DHT22;46552;52.150;8.428;2024-02-26T15:11:21;8.80;99.90
4435;DHT22;46552;52.150;8.428;2024-02-26T15:13:48;8.80;99.90
4435;DHT22;46552;52.150;8.428;2024-02-26T15:16:19;8.80;99.90
4435;DHT22;46552;52.150;8.428;2024-02-26T15:18:46;8.70;99.90
4435;DHT22;46552;52.150;8.428;2024-02-26T15:21:13;8.70;99.90
4435;DHT22;46552;52.150;8.428;2024-02-26T15:23:43;8.70;99.90
4435;DHT22;46552;52.150;8.428;2024-02-26T15:26:11;8.70;99.90
4435;DHT22;46552;52.150;8.428;2024-02-26T15:28:41;8.70;99.90
4435;DHT22;46552;52.150;8.428;2024-02-26T15:31:08;8.70;99.90
4435;DHT22;46552;52.150;8.428;2024-02-26T15:33:36;8.60;99.90
4435;DHT22;46552;52.150;8.428;2024-02-26T15:36:03;8.60;99.90
4435;DHT22;46552;52.150;8.428;2024-02-26T15:38:35;8.60;99.90
4435;DHT22;46552;52.150;8.428;2024-02-26T15:41:02;8.60;99.90
4435;DHT22;46552;52.150;8.428;2024-02-26T15:43:29;8.50;99.90
4435;DHT22;46552;52.150;8.428;2024-02-26T15:46:00;8.50;99.90
4435;DHT22;46552;52.150;8.428;2024-02-26T15:48:28;8.50;99.90
4435;DHT22;46552;52.150;8.428;2024-02-26T15:50:56;8.50;99.90
4435;DHT22;46552;52.150;8.428;2024-02-26T15:53:23;8.50;99.90
4435;DHT22;46552;52.150;8.428;2024-02-26T15:55:50;8.40;99.90
4435;DHT22;46552;52.150;8.428;2024-02-26T15:58:18;8.40;99.90
4435;DHT22;46552;52.150;8.428;2024-02-26T16:00:46;8.40;99.90
4435;DHT22;46552;52.150;8.428;2024-02-26T16:03:16;8.40;99.90
4435;DHT22;46552;52.150;8.428;2024-02-26T16:05:44;8.40;99.90
4435;DHT22;46552;52.150;8.428;2024-02-26T16:08:19;8.30;99.90